sensor_id;sensor_type;location;lat;lon;timestamp;temperature;humidity
10846;DHT22;5476;51.540;7.186;2022-07-25T06:56:58;25.20;99.90
10846;DHT22;5476;51.540;7.186;2022-07-25T06:59:25;25.20;99.90
10846;DHT22;5476;51.540;7.186;2022-07-25T07:01:52;25.40;99.90
10846;DHT22;5476;51.540;7.186;2022-07-25T07:09:13;26.20;99.90
10846;DHT22;5476;51.540;7.186;2022-07-25T07:14:09;26.40;99.90
10846;DHT22;5476;51.540;7.186;2022-07-25T07:16:36;26.50;99.90
10846;DHT22;5476;51.540;7.186;2022-07-25T07:19:04;26.60;99.90
10846;DHT22;5476;51.540;7.186;2022-07-25T07:21:31;26.70;99.90
10846;DHT22;5476;51.540;7.186;2022-07-25T07:23:58;26.70;99.90
10846;DHT22;5476;51.540;7.186;2022-07-25T07:26:24;26.80;99.90
10846;DHT22;5476;51.540;7.186;2022-07-25T07:28:51;26.90;99.90
10846;DHT22;5476;51.540;7.186;2022-07-25T07:31:21;27.00;99.90
10846;DHT22;5476;51.540;7.186;2022-07-25T07:36:16;27.10;99.70
10846;DHT22;5476;51.540;7.186;2022-07-25T07:46:04;27.40;99.00
10846;DHT22;5476;51.540;7.186;2022-07-25T07:48:33;27.50;99.10
10846;DHT22;5476;51.540;7.186;2022-07-25T07:51:01;27.60;97.90
10846;DHT22;5476;51.540;7.186;2022-07-25T07:53:28;27.70;97.60
10846;DHT22;5476;51.540;7.186;2022-07-25T07:56:09;27.80;98.10
10846;DHT22;5476;51.540;7.186;2022-07-25T08:01:04;27.90;97.00
10846;DHT22;5476;51.540;7.186;2022-07-25T08:03:33;28.00;96.40
10846;DHT22;5476;51.540;7.186;2022-07-25T08:06:00;28.10;96.70
10846;DHT22;5476;51.540;7.186;2022-07-25T08:08:27;28.20;95.30
10846;DHT22;5476;51.540;7.186;2022-07-25T08:10:55;28.30;95.70
10846;DHT22;5476;51.540;7.186;2022-07-25T08:13:24;28.30;95.50
10846;DHT22;5476;51.540;7.186;2022-07-25T08:15:53;28.40;94.40
10846;DHT22;5476;51.540;7.186;2022-07-25T08:18:22;28.40;94.50
10846;DHT22;5476;51.540;7.186;2022-07-25T08:20:51;28.50;93.70
10846;DHT22;5476;51.540;7.186;2022-07-25T08:23:19;28.50;93.60
10846;DHT22;5476;51.540;7.186;2022-07-25T08:25:47;28.60;93.90
10846;DHT22;5476;51.540;7.186;2022-07-25T08:28:14;28.70;93.90
10846;DHT22;5476;51.540;7.186;2022-07-25T08:30:41;28.70;93.10
10846;DHT22;5476;51.540;7.186;2022-07-25T08:33:09;28.80;91.80
10846;DHT22;5476;51.540;7.186;2022-07-25T08:35:38;28.80;92.40
10846;DHT22;5476;51.540;7.186;2022-07-25T08:38:07;28.90;91.60
10846;DHT22;5476;51.540;7.186;2022-07-25T08:40:35;29.00;91.90
10846;DHT22;5476;51.540;7.186;2022-07-25T08:43:02;29.00;91.00
10846;DHT22;5476;51.540;7.186;2022-07-25T08:45:32;29.10;91.20
10846;DHT22;5476;51.540;7.186;2022-07-25T08:47:59;29.20;90.60
10846;DHT22;5476;51.540;7.186;2022-07-25T08:50:28;29.20;90.60
10846;DHT22;5476;51.540;7.186;2022-07-25T08:55:24;29.50;91.10
10846;DHT22;5476;51.540;7.186;2022-07-25T08:57:53;29.60;90.50
10846;DHT22;5476;51.540;7.186;2022-07-25T09:00:22;29.70;89.00
10846;DHT22;5476;51.540;7.186;2022-07-25T09:02:54;29.80;89.80
10846;DHT22;5476;51.540;7.186;2022-07-25T09:05:22;29.70;88.50
10846;DHT22;5476;51.540;7.186;2022-07-25T09:07:49;29.70;88.50
10846;DHT22;5476;51.540;7.186;2022-07-25T09:10:18;29.50;89.60
10846;DHT22;5476;51.540;7.186;2022-07-25T09:12:55;29.40;90.60
10846;DHT22;5476;51.540;7.186;2022-07-25T09:15:24;29.40;90.70
10846;DHT22;5476;51.540;7.186;2022-07-25T09:17:52;29.40;90.70
10846;DHT22;5476;51.540;7.186;2022-07-25T09:20:19;29.40;91.20
10846;DHT22;5476;51.540;7.186;2022-07-25T09:22:47;29.50;91.20
10846;DHT22;5476;51.540;7.186;2022-07-25T09:25:22;29.50;91.20
10846;DHT22;5476;51.540;7.186;2022-07-25T09:30:18;29.80;90.30
10846;DHT22;5476;51.540;7.186;2022-07-25T09:40:13;30.50;88.50
10846;DHT22;5476;51.540;7.186;2022-07-25T09:45:12;30.50;86.60
10846;DHT22;5476;51.540;7.186;2022-07-25T09:47:52;30.40;85.80
10846;DHT22;5476;51.540;7.186;2022-07-25T09:52:49;30.50;86.20
10846;DHT22;5476;51.540;7.186;2022-07-25T10:00:14;30.40;86.60
10846;DHT22;5476;51.540;7.186;2022-07-25T10:02:47;30.50;86.20
10846;DHT22;5476;51.540;7.186;2022-07-25T10:05:23;30.50;85.60
10846;DHT22;5476;51.540;7.186;2022-07-25T10:07:53;30.60;86.60
10846;DHT22;5476;51.540;7.186;2022-07-25T10:10:24;30.70;85.70
10846;DHT22;5476;51.540;7.186;2022-07-25T10:13:03;30.70;85.70
10846;DHT22;5476;51.540;7.186;2022-07-25T10:15:45;30.60;85.20
10846;DHT22;5476;51.540;7.186;2022-07-25T10:18:14;30.60;86.20
10846;DHT22;5476;51.540;7.186;2022-07-25T10:20:43;30.60;85.60
10846;DHT22;5476;51.540;7.186;2022-07-25T10:23:18;30.70;85.00
10846;DHT22;5476;51.540;7.186;2022-07-25T10:25:45;30.40;84.90
10846;DHT22;5476;51.540;7.186;2022-07-25T10:28:17;30.00;87.20
10846;DHT22;5476;51.540;7.186;2022-07-25T10:33:12;30.60;90.50
10846;DHT22;5476;51.540;7.186;2022-07-25T10:35:41;29.50;90.90
10846;DHT22;5476;51.540;7.186;2022-07-25T10:40:37;29.70;91.50
10846;DHT22;5476;51.540;7.186;2022-07-25T10:43:08;29.90;91.50
10846;DHT22;5476;51.540;7.186;2022-07-25T10:45:38;30.00;90.90
10846;DHT22;5476;51.540;7.186;2022-07-25T10:48:07;30.00;91.10
10846;DHT22;5476;51.540;7.186;2022-07-25T10:53:03;29.90;90.70
10846;DHT22;5476;51.540;7.186;2022-07-25T10:55:34;29.90;90.40
10846;DHT22;5476;51.540;7.186;2022-07-25T10:58:03;30.30;90.30
10846;DHT22;5476;51.540;7.186;2022-07-25T11:00:32;30.80;85.10
10846;DHT22;5476;51.540;7.186;2022-07-25T11:02:59;30.70;85.40
10846;DHT22;5476;51.540;7.186;2022-07-25T11:10:26;30.30;85.90
10846;DHT22;5476;51.540;7.186;2022-07-25T11:12:54;30.30;85.30
10846;DHT22;5476;51.540;7.186;2022-07-25T11:15:22;30.50;86.50
10846;DHT22;5476;51.540;7.186;2022-07-25T11:17:50;30.60;85.30
10846;DHT22;5476;51.540;7.186;2022-07-25T11:20:17;30.70;84.10
10846;DHT22;5476;51.540;7.186;2022-07-25T11:22:51;30.70;83.00
10846;DHT22;5476;51.540;7.186;2022-07-25T11:25:20;30.80;81.80
10846;DHT22;5476;51.540;7.186;2022-07-25T11:27:57;30.80;81.00
10846;DHT22;5476;51.540;7.186;2022-07-25T11:30:25;30.90;80.70
10846;DHT22;5476;51.540;7.186;2022-07-25T11:32:56;31.00;80.20
10846;DHT22;5476;51.540;7.186;2022-07-25T11:35:25;31.00;79.40
10846;DHT22;5476;51.540;7.186;2022-07-25T11:40:21;31.00;77.40
10846;DHT22;5476;51.540;7.186;2022-07-25T11:42:50;30.90;77.20
10846;DHT22;5476;51.540;7.186;2022-07-25T11:45:21;30.80;77.00
10846;DHT22;5476;51.540;7.186;2022-07-25T11:47:49;30.80;77.20
10846;DHT22;5476;51.540;7.186;2022-07-25T11:52:43;30.50;77.60
10846;DHT22;5476;51.540;7.186;2022-07-25T11:55:12;30.50;77.20
10846;DHT22;5476;51.540;7.186;2022-07-25T11:57:41;30.50;77.90
10846;DHT22;5476;51.540;7.186;2022-07-25T12:00:15;30.70;78.20
10846;DHT22;5476;51.540;7.186;2022-07-25T12:02:44;30.80;76.60
10846;DHT22;5476;51.540;7.186;2022-07-25T12:05:14;30.80;77.30
10846;DHT22;5476;51.540;7.186;2022-07-25T12:07:43;31.00;77.30
10846;DHT22;5476;51.540;7.186;2022-07-25T12:10:14;30.90;77.00
10846;DHT22;5476;51.540;7.186;2022-07-25T12:12:43;30.80;76.90
10846;DHT22;5476;51.540;7.186;2022-07-25T12:15:11;30.80;77.50
10846;DHT22;5476;51.540;7.186;2022-07-25T12:17:39;30.90;77.20
10846;DHT22;5476;51.540;7.186;2022-07-25T12:20:13;31.10;76.50
10846;DHT22;5476;51.540;7.186;2022-07-25T12:22:41;31.10;77.00
10846;DHT22;5476;51.540;7.186;2022-07-25T12:25:08;31.20;75.80
10846;DHT22;5476;51.540;7.186;2022-07-25T12:27:36;31.30;76.00
10846;DHT22;5476;51.540;7.186;2022-07-25T12:30:04;31.50;76.10
10846;DHT22;5476;51.540;7.186;2022-07-25T12:34:59;31.40;77.10
10846;DHT22;5476;51.540;7.186;2022-07-25T12:37:27;31.40;76.70
10846;DHT22;5476;51.540;7.186;2022-07-25T12:39:54;31.30;76.60
10846;DHT22;5476;51.540;7.186;2022-07-25T12:42:21;31.20;77.00
10846;DHT22;5476;51.540;7.186;2022-07-25T12:44:48;31.20;76.70
10846;DHT22;5476;51.540;7.186;2022-07-25T12:47:15;31.10;76.80
10846;DHT22;5476;51.540;7.186;2022-07-25T12:49:42;31.00;76.80
10846;DHT22;5476;51.540;7.186;2022-07-25T12:52:09;31.10;77.90
10846;DHT22;5476;51.540;7.186;2022-07-25T12:54:38;31.10;77.50
10846;DHT22;5476;51.540;7.186;2022-07-25T12:57:05;31.20;77.90
10846;DHT22;5476;51.540;7.186;2022-07-25T12:59:32;31.20;78.10
10846;DHT22;5476;51.540;7.186;2022-07-25T13:01:59;31.10;78.70
10846;DHT22;5476;51.540;7.186;2022-07-25T13:04:26;31.00;79.30
10846;DHT22;5476;51.540;7.186;2022-07-25T13:06:53;31.00;80.10
10846;DHT22;5476;51.540;7.186;2022-07-25T13:09:20;30.80;80.70
10846;DHT22;5476;51.540;7.186;2022-07-25T13:11:49;30.80;81.20
10846;DHT22;5476;51.540;7.186;2022-07-25T13:16:43;30.70;81.30
10846;DHT22;5476;51.540;7.186;2022-07-25T13:19:12;30.60;82.20
10846;DHT22;5476;51.540;7.186;2022-07-25T13:24:07;30.50;83.20
10846;DHT22;5476;51.540;7.186;2022-07-25T13:26:34;30.60;83.70
10846;DHT22;5476;51.540;7.186;2022-07-25T13:29:03;30.70;84.10
10846;DHT22;5476;51.540;7.186;2022-07-25T13:31:32;30.60;84.50
10846;DHT22;5476;51.540;7.186;2022-07-25T13:33:59;30.50;84.90
10846;DHT22;5476;51.540;7.186;2022-07-25T13:38:54;30.40;87.30
10846;DHT22;5476;51.540;7.186;2022-07-25T13:41:20;30.50;88.00
10846;DHT22;5476;51.540;7.186;2022-07-25T13:46:16;30.50;90.00
10846;DHT22;5476;51.540;7.186;2022-07-25T13:48:43;30.60;90.20
10846;DHT22;5476;51.540;7.186;2022-07-25T13:53:37;30.60;89.00
10846;DHT22;5476;51.540;7.186;2022-07-25T13:56:04;30.70;89.10
10846;DHT22;5476;51.540;7.186;2022-07-25T14:00:59;30.70;90.00
10846;DHT22;5476;51.540;7.186;2022-07-25T14:03:27;30.60;90.10
10846;DHT22;5476;51.540;7.186;2022-07-25T14:05:54;30.60;90.20
10846;DHT22;5476;51.540;7.186;2022-07-25T14:08:21;30.70;90.00
10846;DHT22;5476;51.540;7.186;2022-07-25T14:10:50;30.60;88.10
10846;DHT22;5476;51.540;7.186;2022-07-25T14:13:17;30.50;87.80
10846;DHT22;5476;51.540;7.186;2022-07-25T14:15:44;30.40;87.20
10846;DHT22;5476;51.540;7.186;2022-07-25T14:18:11;30.30;86.80
10846;DHT22;5476;51.540;7.186;2022-07-25T14:20:40;30.30;87.60
10846;DHT22;5476;51.540;7.186;2022-07-25T14:23:07;30.10;88.10
10846;DHT22;5476;51.540;7.186;2022-07-25T14:25:34;30.00;89.00
10846;DHT22;5476;51.540;7.186;2022-07-25T14:30:28;29.90;88.70
10846;DHT22;5476;51.540;7.186;2022-07-25T14:32:55;29.80;87.60
10846;DHT22;5476;51.540;7.186;2022-07-25T14:37:50;29.70;85.40
10846;DHT22;5476;51.540;7.186;2022-07-25T14:40:17;29.60;85.00
10846;DHT22;5476;51.540;7.186;2022-07-25T14:42:44;29.60;85.80
10846;DHT22;5476;51.540;7.186;2022-07-25T14:47:40;29.70;85.70
10846;DHT22;5476;51.540;7.186;2022-07-25T14:50:07;29.70;85.60
10846;DHT22;5476;51.540;7.186;2022-07-25T14:52:35;29.80;86.10
10846;DHT22;5476;51.540;7.186;2022-07-25T14:55:04;29.90;86.60
10846;DHT22;5476;51.540;7.186;2022-07-25T14:57:31;30.00;85.40
10846;DHT22;5476;51.540;7.186;2022-07-25T14:59:58;30.00;85.60
10846;DHT22;5476;51.540;7.186;2022-07-25T15:02:26;30.00;85.60
10846;DHT22;5476;51.540;7.186;2022-07-25T15:07:20;29.60;89.20
10846;DHT22;5476;51.540;7.186;2022-07-25T15:09:48;29.40;90.80
10846;DHT22;5476;51.540;7.186;2022-07-25T15:12:16;29.20;92.00
10846;DHT22;5476;51.540;7.186;2022-07-25T15:14:44;28.80;93.30
10846;DHT22;5476;51.540;7.186;2022-07-25T15:17:11;28.80;94.40
10846;DHT22;5476;51.540;7.186;2022-07-25T15:19:38;28.70;95.30
10846;DHT22;5476;51.540;7.186;2022-07-25T15:22:05;28.60;96.10
10846;DHT22;5476;51.540;7.186;2022-07-25T15:27:00;28.50;96.40
10846;DHT22;5476;51.540;7.186;2022-07-25T15:29:28;28.50;96.50
10846;DHT22;5476;51.540;7.186;2022-07-25T15:46:40;27.90;99.50
10846;DHT22;5476;51.540;7.186;2022-07-25T15:58:56;27.70;99.50
10846;DHT22;5476;51.540;7.186;2022-07-25T16:01:23;27.70;98.70
10846;DHT22;5476;51.540;7.186;2022-07-25T16:03:51;27.70;97.60
10846;DHT22;5476;51.540;7.186;2022-07-25T16:06:20;27.40;96.90
10846;DHT22;5476;51.540;7.186;2022-07-25T16:13:42;27.30;96.70
10846;DHT22;5476;51.540;7.186;2022-07-25T16:21:05;27.10;96.50
10846;DHT22;5476;51.540;7.186;2022-07-25T16:28:30;27.30;96.20
10846;DHT22;5476;51.540;7.186;2022-07-25T16:30:56;27.30;96.40
10846;DHT22;5476;51.540;7.186;2022-07-25T16:33:23;27.40;95.70
10846;DHT22;5476;51.540;7.186;2022-07-25T16:38:19;27.40;95.10
10846;DHT22;5476;51.540;7.186;2022-07-25T16:43:14;27.20;93.50
10846;DHT22;5476;51.540;7.186;2022-07-25T16:53:02;27.10;94.20
10846;DHT22;5476;51.540;7.186;2022-07-25T16:55:30;27.10;94.20
10846;DHT22;5476;51.540;7.186;2022-07-25T17:05:19;26.90;95.50
10846;DHT22;5476;51.540;7.186;2022-07-25T17:07:46;26.90;95.80
10846;DHT22;5476;51.540;7.186;2022-07-25T17:12:44;26.90;95.40
10846;DHT22;5476;51.540;7.186;2022-07-25T17:17:38;26.70;95.30
10846;DHT22;5476;51.540;7.186;2022-07-25T17:20:06;26.70;94.80
10846;DHT22;5476;51.540;7.186;2022-07-25T17:29:56;26.40;95.20
10846;DHT22;5476;51.540;7.186;2022-07-25T17:32:24;26.40;95.20
10846;DHT22;5476;51.540;7.186;2022-07-25T17:37:19;26.20;95.20
10846;DHT22;5476;51.540;7.186;2022-07-25T17:39:47;26.20;95.10
10846;DHT22;5476;51.540;7.186;2022-07-25T17:44:46;26.20;95.30
10846;DHT22;5476;51.540;7.186;2022-07-25T17:47:16;26.30;95.00
10846;DHT22;5476;51.540;7.186;2022-07-25T17:49:44;26.40;94.00
10846;DHT22;5476;51.540;7.186;2022-07-25T18:02:02;26.50;93.00
10846;DHT22;5476;51.540;7.186;2022-07-25T18:04:30;26.40;93.00
10846;DHT22;5476;51.540;7.186;2022-07-25T18:06:57;26.30;93.30
10846;DHT22;5476;51.540;7.186;2022-07-25T18:09:25;26.40;93.10
10846;DHT22;5476;51.540;7.186;2022-07-25T18:21:43;26.30;91.00
10846;DHT22;5476;51.540;7.186;2022-07-25T18:24:11;26.20;91.10
10846;DHT22;5476;51.540;7.186;2022-07-25T18:29:06;26.10;91.50
10846;DHT22;5476;51.540;7.186;2022-07-25T18:31:34;26.10;91.70
10846;DHT22;5476;51.540;7.186;2022-07-25T18:38:57;26.00;90.00
10846;DHT22;5476;51.540;7.186;2022-07-25T18:41:24;25.90;89.90
10846;DHT22;5476;51.540;7.186;2022-07-25T18:56:09;25.50;88.50
10846;DHT22;5476;51.540;7.186;2022-07-25T19:03:30;25.50;89.40
10846;DHT22;5476;51.540;7.186;2022-07-25T19:05:59;25.40;89.60
10846;DHT22;5476;51.540;7.186;2022-07-25T19:08:26;25.20;90.10
10846;DHT22;5476;51.540;7.186;2022-07-25T19:13:22;25.10;90.40
10846;DHT22;5476;51.540;7.186;2022-07-25T19:20:43;24.80;91.70
10846;DHT22;5476;51.540;7.186;2022-07-25T19:30:34;24.70;92.50
10846;DHT22;5476;51.540;7.186;2022-07-25T19:47:45;24.40;91.70
10846;DHT22;5476;51.540;7.186;2022-07-25T19:50:12;24.30;91.60
10846;DHT22;5476;51.540;7.186;2022-07-25T19:52:39;24.20;91.60
10846;DHT22;5476;51.540;7.186;2022-07-25T19:55:06;24.20;91.60
10846;DHT22;5476;51.540;7.186;2022-07-25T20:02:29;24.10;91.70
10846;DHT22;5476;51.540;7.186;2022-07-25T20:04:57;24.10;91.60
10846;DHT22;5476;51.540;7.186;2022-07-25T20:09:52;24.20;91.50
10846;DHT22;5476;51.540;7.186;2022-07-25T20:22:09;24.10;91.90
10846;DHT22;5476;51.540;7.186;2022-07-25T20:27:03;24.00;92.30
10846;DHT22;5476;51.540;7.186;2022-07-25T20:39:22;23.80;93.80
10846;DHT22;5476;51.540;7.186;2022-07-25T20:51:39;23.70;95.00
10846;DHT22;5476;51.540;7.186;2022-07-25T20:54:06;23.80;95.10
10846;DHT22;5476;51.540;7.186;2022-07-25T20:56:35;23.80;95.30
10846;DHT22;5476;51.540;7.186;2022-07-25T21:01:29;23.80;95.60
10846;DHT22;5476;51.540;7.186;2022-07-25T21:03:56;23.90;95.60
10846;DHT22;5476;51.540;7.186;2022-07-25T21:08:51;23.90;95.80
10846;DHT22;5476;51.540;7.186;2022-07-25T21:11:17;23.90;95.90
10846;DHT22;5476;51.540;7.186;2022-07-25T21:13:46;23.80;96.10
10846;DHT22;5476;51.540;7.186;2022-07-25T21:30:59;23.50;98.50
10846;DHT22;5476;51.540;7.186;2022-07-25T21:38:21;23.30;99.30
10846;DHT22;5476;51.540;7.186;2022-07-25T21:48:11;22.70;99.90
10846;DHT22;5476;51.540;7.186;2022-07-25T21:53:05;22.60;99.90
10846;DHT22;5476;51.540;7.186;2022-07-25T21:58:00;22.50;99.90
10846;DHT22;5476;51.540;7.186;2022-07-25T22:00:28;22.30;99.90
10846;DHT22;5476;51.540;7.186;2022-07-25T22:05:24;22.10;99.90
10846;DHT22;5476;51.540;7.186;2022-07-25T22:10:19;22.10;99.90
10846;DHT22;5476;51.540;7.186;2022-07-25T22:12:46;22.00;99.90
10846;DHT22;5476;51.540;7.186;2022-07-25T22:15:14;22.10;99.90
10846;DHT22;5476;51.540;7.186;2022-07-25T22:17:41;22.00;99.90
10846;DHT22;5476;51.540;7.186;2022-07-25T22:20:10;22.00;99.90
10846;DHT22;5476;51.540;7.186;2022-07-25T22:22:39;22.00;99.90
10846;DHT22;5476;51.540;7.186;2022-07-25T22:25:07;22.10;99.90
10846;DHT22;5476;51.540;7.186;2022-07-25T22:39:51;21.80;99.90
10846;DHT22;5476;51.540;7.186;2022-07-25T22:42:19;21.70;99.90
10846;DHT22;5476;51.540;7.186;2022-07-25T22:44:46;21.60;99.90
10846;DHT22;5476;51.540;7.186;2022-07-25T22:47:13;21.70;99.90
10846;DHT22;5476;51.540;7.186;2022-07-25T22:52:07;21.50;99.90
10846;DHT22;5476;51.540;7.186;2022-07-25T22:54:34;21.60;99.90
10846;DHT22;5476;51.540;7.186;2022-07-25T22:57:03;21.60;99.90
10846;DHT22;5476;51.540;7.186;2022-07-25T22:59:30;21.60;99.90
10846;DHT22;5476;51.540;7.186;2022-07-25T23:06:52;21.50;99.90
10846;DHT22;5476;51.540;7.186;2022-07-25T23:09:19;21.50;99.90
10846;DHT22;5476;51.540;7.186;2022-07-25T23:11:47;21.40;99.90
10846;DHT22;5476;51.540;7.186;2022-07-25T23:14:16;21.40;99.90
10846;DHT22;5476;51.540;7.186;2022-07-25T23:16:43;21.40;99.90
10846;DHT22;5476;51.540;7.186;2022-07-25T23:21:57;21.50;99.90
10846;DHT22;5476;51.540;7.186;2022-07-25T23:29:19;21.40;99.90
10846;DHT22;5476;51.540;7.186;2022-07-25T23:34:14;21.40;99.90
10846;DHT22;5476;51.540;7.186;2022-07-25T23:39:08;21.20;99.90
10846;DHT22;5476;51.540;7.186;2022-07-25T23:44:02;21.30;99.90
10846;DHT22;5476;51.540;7.186;2022-07-25T23:46:30;21.30;99.90
10846;DHT22;5476;51.540;7.186;2022-07-25T23:48:58;21.20;99.90
10846;DHT22;5476;51.540;7.186;2022-07-25T23:51:25;21.20;99.90
10846;DHT22;5476;51.540;7.186;2022-07-25T23:53:52;21.20;99.90
10846;DHT22;5476;51.540;7.186;2022-07-25T23:56:19;21.20;99.90
10846;DHT22;5476;51.540;7.186;2022-07-25T23:58:46;21.30;99.90
